1986 IMA (1986036S16187)


On this page: IBTrACS data - Map and Plots - Positions - Intensities - Original source data

Summary

Start Feb 5
End Feb 16
Basin SP
LMI 90 kt
Sources jtwc_sh
wellington
td9636
neumann
In WMO? Yes
Previous storm 1986 FILOMENA (SI)
Previous in basin 1986 WINIFRED (SP)
Concurrent storms 1986 WINIFRED (SP)
1986 JUDY (WP)
1986 ERINESTA (SI)
1986 FILOMENA (SI)
1986 IMA (SP)
1986 JUNE (SP)
1986 MISSING (SP)
1986 KELI (SP)
Next in basin 1986 JUNE (SP)
Next storm 1986 JUNE (SP)

top of page IBTrACS Data: File Access

top of page HURSAT Data: File Access

Image of storm

top of page Plots:

Map of storm track will not appear if FTP is down
Time series of cyclone Maximum Sustained Wind will not appear if FTP is down
Time series of cyclone Minimum Central Pressure will not appear if FTP is down

top of page Track Data:Position

jtwc_sh wellington td9636 neumann
Date Lat Lon Lat Lon Lat Lon Lat Lon
1986-02-05 00:00:00 -16.3 -173.4
1986-02-05 06:00:00 -16.7 -172.4
1986-02-05 12:00:00 -17.2 -171.9 -17.0 -171.2
1986-02-05 18:00:00 -17.3 -169.8 -17.3 -169.5
1986-02-06 00:00:00 -17.5 -167.8 -17.5 -167.6
1986-02-06 06:00:00 -17.7 -166.0 -17.8 -165.7
1986-02-06 12:00:00 -17.4 -164.3 -17.9 -164.0 -18.0 -164.0 -17.4 -164.3
1986-02-06 18:00:00 -17.8 -162.9 -18.1 -162.5 -18.2 -162.5 -17.8 -162.9
1986-02-07 00:00:00 -18.2 -161.5 -18.4 -161.0 -18.4 -161.1 -18.2 -161.5
1986-02-07 06:00:00 -18.5 -160.1 -18.5 -160.0 -18.6 -159.8 -18.5 -160.1
1986-02-07 12:00:00 -18.7 -158.7 -18.8 -159.1 -18.8 -158.6 -18.7 -158.7
1986-02-07 18:00:00 -19.0 -157.4 -19.1 -157.5 -19.1 -157.3 -19.0 -157.4
1986-02-08 00:00:00 -19.3 -156.1 -19.3 -156.0 -19.3 -156.1 -19.3 -156.1
1986-02-08 06:00:00 -19.4 -155.0 -19.5 -155.0 -19.5 -155.1 -19.4 -155.0
1986-02-08 12:00:00 -19.5 -154.1 -19.6 -154.0 -19.6 -154.3 -19.5 -154.1
1986-02-08 18:00:00 -19.6 -153.4 -19.7 -153.5 -19.7 -153.6 -19.6 -153.4
1986-02-09 00:00:00 -19.6 -152.8 -19.8 -153.0 -19.8 -152.9 -19.6 -152.8
1986-02-09 06:00:00 -19.6 -152.0 -19.9 -152.5 -19.9 -152.2 -19.6 -152.0
1986-02-09 12:00:00 -19.6 -151.3 -20.0 -151.8 -20.1 -151.5 -19.6 -151.3
1986-02-09 18:00:00 -19.6 -150.6 -20.2 -151.0 -20.3 -150.8 -19.6 -150.6
1986-02-10 00:00:00 -19.7 -150.0 -20.5 -150.5 -20.5 -150.3 -19.7 -150.0
1986-02-10 06:00:00 -20.0 -149.3 -20.5 -150.3 -20.5 -150.1 -20.0 -149.3
1986-02-10 12:00:00 -20.3 -149.0 -20.5 -150.0 -20.4 -149.8 -20.3 -149.0
1986-02-10 18:00:00 -20.6 -149.3 -20.4 -149.9 -20.2 -149.0 -20.6 -149.3
1986-02-11 00:00:00 -20.9 -149.8 -20.2 -149.8 -19.9 -148.5 -20.9 -149.8
jtwc_sh wellington td9636 neumann
1986-02-11 06:00:00 -21.0 -150.3 -19.8 -149.9 -19.7 -149.2 -21.0 -150.3
1986-02-11 12:00:00 -20.9 -150.8 -19.5 -150.2 -19.6 -150.3 -20.9 -150.8
1986-02-11 18:00:00 -20.8 -151.3 -19.4 -151.0 -19.5 -150.9 -20.8 -151.3
1986-02-12 00:00:00 -20.7 -151.8 -19.5 -151.6 -19.5 -151.4 -20.7 -151.8
1986-02-12 06:00:00 -20.7 -152.3 -19.6 -152.2 -19.6 -152.0 -20.7 -152.3
1986-02-12 12:00:00 -20.7 -152.8 -20.0 -152.8 -19.9 -152.6 -20.7 -152.8
1986-02-12 18:00:00 -20.9 -153.3 -20.6 -153.5 -20.1 -153.0 -20.9 -153.3
1986-02-13 00:00:00 -21.4 -153.8 -21.2 -153.8 -20.6 -153.4 -21.4 -153.8
1986-02-13 06:00:00 -22.0 -154.2 -21.9 -154.1 -21.5 -153.8 -22.0 -154.2
1986-02-13 12:00:00 -22.6 -154.5 -22.6 -154.3 -22.5 -154.1 -22.6 -154.5
1986-02-13 18:00:00 -23.3 -154.4 -23.8 -154.5 -23.4 -154.2 -23.3 -154.4
1986-02-14 00:00:00 -24.1 -154.0 -24.9 -154.3 -24.5 -154.1 -24.1 -154.0
1986-02-14 06:00:00 -25.1 -153.4 -26.2 -153.9 -25.9 -154.0 -25.1 -153.4
1986-02-14 12:00:00 -26.2 -152.5 -27.5 -153.0 -27.5 -153.1 -26.2 -152.5
1986-02-14 18:00:00 -29.6 -150.6 -29.4 -151.1
1986-02-15 00:00:00 -31.0 -148.0 -31.5 -148.2
1986-02-15 06:00:00 -32.1 -146.2 -33.9 -145.1
1986-02-15 12:00:00 -33.3 -144.3 -36.3 -141.2
1986-02-15 18:00:00 -37.5 -140.0 -38.6 -136.6
1986-02-16 00:00:00 -41.0 -134.0 -40.7 -131.5

top of pageTrack Data:Intensity

jtwc_sh wellington td9636 neumann
Date Wind Pres Wind Pres Wind Pres Wind Pres
1986-02-05 00:00:00
1986-02-05 06:00:00
1986-02-05 12:00:00 30. 997.
1986-02-05 18:00:00 30. 997.
1986-02-06 00:00:00 40. 990.
1986-02-06 06:00:00 55. 980.
1986-02-06 12:00:00 45. 65. 970. 45.
1986-02-06 18:00:00 50. 65. 970. 50.
1986-02-07 00:00:00 55. 70. 965. 55.
1986-02-07 06:00:00 60. 70. 965. 60.
1986-02-07 12:00:00 65. 70. 965. 65.
1986-02-07 18:00:00 70. 70. 965. 70.
1986-02-08 00:00:00 75. 75. 960. 75.
1986-02-08 06:00:00 75. 80. 955. 75.
1986-02-08 12:00:00 75. 80. 955. 75.
1986-02-08 18:00:00 75. 85. 945. 75.
1986-02-09 00:00:00 75. 90. 940. 75.
1986-02-09 06:00:00 75. 90. 940. 75.
1986-02-09 12:00:00 75. 90. 940. 75.
1986-02-09 18:00:00 70. 90. 940. 70.
1986-02-10 00:00:00 65. 90. 940. 65.
1986-02-10 06:00:00 65. 90. 940. 65.
1986-02-10 12:00:00 65. 90. 940. 65.
1986-02-10 18:00:00 65. 90. 940. 65.
1986-02-11 00:00:00 65. 90. 940. 65.
jtwc_sh wellington td9636 neumann
1986-02-11 06:00:00 65. 90. 940. 65.
1986-02-11 12:00:00 65. 90. 940. 65.
1986-02-11 18:00:00 60. 90. 940. 60.
1986-02-12 00:00:00 55. 90. 940. 55.
1986-02-12 06:00:00 55. 90. 940. 55.
1986-02-12 12:00:00 55. 90. 940. 55.
1986-02-12 18:00:00 55. 85. 945. 55.
1986-02-13 00:00:00 55. 80. 955. 55.
1986-02-13 06:00:00 50. 75. 960. 50.
1986-02-13 12:00:00 45. 70. 965. 45.
1986-02-13 18:00:00 45. 65. 970. 45.
1986-02-14 00:00:00 45. 60. 975. 45.
1986-02-14 06:00:00 40. 60. 975. 40.
1986-02-14 12:00:00 35. 55. 980. 35.
1986-02-14 18:00:00 55. 980.
1986-02-15 00:00:00 50. 985.
1986-02-15 06:00:00 45. 987.
1986-02-15 12:00:00 40. 990.
1986-02-15 18:00:00 35. 995.
1986-02-16 00:00:00 30. 997.

top of page Links to source data

Source Source file Format
jtwc_sh bsh151986.txt ATCF
wellington TC_BT_1967_2006.csv:Line=2351:IMA Text table
td9636 cons_worldwide_trop_cyclone_18710101-19891231-006:Line=12594 TD 9636
neumann tracks.sh:Storm=768:IMA:BSH171986:JTWC&NZeal869 HURDAT